Terminal Aerodrome Forecast
Issued by NWS

Home | Current Version | Previous Version | Text Only | Print | Product List | Glossary On
Versions: 1 2 3 4 5 6 7 8 9 10 11 12 13
000
FTUS43 KMPX 260500
TAFRWF
TAF
KRWF 260520Z 2606/2706 13002KT P6SM SKC
     FM261200 13008KT P6SM SKC
     FM261700 14018G24KT P6SM FEW200
     FM270000 14004KT P6SM BKN200=

USA.gov is the U.S. government's official web portal to all federal, state and local government web resources and services.